Time,TemperatureF,DewpointF,PressureIn,WindDirection,WindDirectionDegrees,WindSpeedMPH,WindSpeedGustMPH,Humidity,HourlyPrecipIn,Conditions,Clouds,dailyrainin,SoftwareType,DateUTC
2013-06-08 00:00:00,60.9,59.8,29.59,NNW,341,2.0,6.0,96,0.21,,OVC009,0.00,VWS V14.00,2013-06-08 04:00:00,
2013-06-08 00:01:00,60.9,59.8,29.59,NNW,341,2.0,6.0,96,0.21,,RA,0.00,VWS V14.00,2013-06-08 04:01:00,
2013-06-08 00:02:00,60.9,59.8,29.59,North,360,1.0,2.0,96,0.16,,RA,0.01,VWS V14.00,2013-06-08 04:02:00,
2013-06-08 00:08:00,60.9,59.8,29.59,North,11,4.0,6.0,96,0.18,,RA,0.03,VWS V14.00,2013-06-08 04:08:00,
2013-06-08 00:12:00,60.9,59.8,29.60,NNE,22,3.0,7.0,96,0.19,,RA,0.04,VWS V14.00,2013-06-08 04:12:00,
2013-06-08 00:17:00,60.9,59.8,29.60,North,5,0.0,7.0,96,0.19,,RA,0.04,VWS V14.00,2013-06-08 04:17:00,
2013-06-08 00:22:00,60.8,59.7,29.60,NE,48,1.0,8.0,96,0.20,,RA,0.05,VWS V14.00,2013-06-08 04:22:00,
2013-06-08 00:27:00,60.7,59.6,29.59,NNW,333,1.0,8.0,96,0.20,,RA,0.05,VWS V14.00,2013-06-08 04:27:00,
2013-06-08 00:30:00,60.7,59.6,29.59,North,5,4.0,8.0,96,0.21,,OVC009,0.06,VWS V14.00,2013-06-08 04:30:00,
2013-06-08 00:33:00,60.6,59.5,29.59,NW,318,2.0,7.0,96,0.14,,-RA,0.06,VWS V14.00,2013-06-08 04:33:00,
2013-06-08 00:38:00,60.5,59.4,29.59,NNE,29,1.0,7.0,96,0.14,,-RA,0.06,VWS V14.00,2013-06-08 04:38:00,
2013-06-08 00:43:00,60.5,59.4,29.59,NNE,15,1.0,7.0,96,0.14,,-RA,0.06,VWS V14.00,2013-06-08 04:43:00,
2013-06-08 00:48:00,60.4,59.3,29.59,North,6,2.0,7.0,96,0.14,,-RA,0.06,VWS V14.00,2013-06-08 04:48:00,
2013-06-08 00:53:00,60.3,59.2,29.59,North,360,6.0,7.0,96,0.14,,-RA,0.06,VWS V14.00,2013-06-08 04:53:00,
2013-06-08 00:58:00,60.3,59.2,29.59,NE,34,3.0,8.0,96,0.15,,-RA,0.07,VWS V14.00,2013-06-08 04:58:00,
2013-06-08 01:00:00,60.3,59.2,29.59,North,349,1.0,8.0,96,0.15,,OVC009,0.07,VWS V14.00,2013-06-08 05:00:00,
2013-06-08 01:03:00,60.2,59.1,29.59,North,3,2.0,8.0,96,0.07,,-RA,0.07,VWS V14.00,2013-06-08 05:03:00,
2013-06-08 01:08:00,60.1,59.0,29.59,NE,36,2.0,8.0,96,0.07,,-RA,0.07,VWS V14.00,2013-06-08 05:08:00,
2013-06-08 01:13:00,60.1,59.0,29.58,NNE,15,2.0,8.0,96,0.07,,-RA,0.07,VWS V14.00,2013-06-08 05:13:00,
2013-06-08 01:18:00,59.9,58.8,29.58,ENE,63,2.0,8.0,96,0.07,,-RA,0.07,VWS V14.00,2013-06-08 05:18:00,
2013-06-08 01:24:00,59.9,58.8,29.58,NW,322,3.0,8.0,96,0.08,,-RA,0.08,VWS V14.00,2013-06-08 05:24:00,
2013-06-08 01:29:00,59.7,58.6,29.58,NNW,339,3.0,8.0,96,0.08,,-RA,0.08,VWS V14.00,2013-06-08 05:29:00,
2013-06-08 01:30:00,59.8,58.7,29.58,East,82,2.0,8.0,96,0.08,,OVC009,0.08,VWS V14.00,2013-06-08 05:30:00,
2013-06-08 01:34:00,59.7,58.6,29.59,North,360,4.0,11.0,96,0.02,,-RA,0.08,VWS V14.00,2013-06-08 05:34:00,
2013-06-08 01:39:00,59.7,58.6,29.59,NW,326,2.0,11.0,96,0.03,,-RA,0.09,VWS V14.00,2013-06-08 05:39:00,
2013-06-08 01:44:00,59.7,58.6,29.59,WNW,297,3.0,11.0,96,0.03,,-RA,0.09,VWS V14.00,2013-06-08 05:44:00,
2013-06-08 01:49:00,59.8,58.7,29.59,NNW,333,3.0,11.0,96,0.03,,-RA,0.09,VWS V14.00,2013-06-08 05:49:00,
2013-06-08 01:54:00,59.9,58.8,29.59,NW,323,2.0,11.0,96,0.03,,-RA,0.09,VWS V14.00,2013-06-08 05:54:00,
2013-06-08 02:00:00,59.9,58.8,29.59,NNE,16,2.0,4.0,96,0.02,,-RA,0.09,VWS V14.00,2013-06-08 06:00:00,
2013-06-08 02:05:00,60.0,58.9,29.59,NNW,335,8.0,9.0,96,0.03,,-RA,0.10,VWS V14.00,2013-06-08 06:05:00,
2013-06-08 02:10:00,60.0,58.6,29.59,NW,308,3.0,9.0,95,0.03,,-RA,0.10,VWS V14.00,2013-06-08 06:10:00,
2013-06-08 02:15:00,60.0,58.6,29.59,NNW,347,2.0,9.0,95,0.03,,-RA,0.10,VWS V14.00,2013-06-08 06:15:00,
2013-06-08 02:20:00,60.0,58.6,29.59,NW,319,6.0,9.0,95,0.03,,-RA,0.10,VWS V14.00,2013-06-08 06:20:00,
2013-06-08 02:25:00,60.0,58.6,29.60,NNW,340,4.0,10.0,95,0.03,,-RA,0.10,VWS V14.00,2013-06-08 06:25:00,
2013-06-08 02:30:00,60.1,58.7,29.60,NNW,336,3.0,5.0,95,0.02,,-RA,0.10,VWS V14.00,2013-06-08 06:30:00,
2013-06-08 02:35:00,60.0,58.6,29.60,NW,305,2.0,10.0,95,0.02,,-RA,0.10,VWS V14.00,2013-06-08 06:35:00,
2013-06-08 02:40:00,59.9,58.2,29.61,ENE,64,4.0,10.0,94,0.02,,-RA,0.10,VWS V14.00,2013-06-08 06:40:00,
2013-06-08 02:45:00,59.8,58.1,29.62,NNW,341,1.0,10.0,94,0.02,,-RA,0.10,VWS V14.00,2013-06-08 06:45:00,
2013-06-08 02:51:00,59.7,58.0,29.63,NW,309,9.0,10.0,94,0.03,,-RA,0.11,VWS V14.00,2013-06-08 06:51:00,
2013-06-08 02:56:00,59.6,57.9,29.62,NNW,338,3.0,11.0,94,0.03,,-RA,0.11,VWS V14.00,2013-06-08 06:56:00,
2013-06-08 03:00:00,59.4,57.7,29.62,NW,308,7.0,11.0,94,0.03,,OVC009,0.11,VWS V14.00,2013-06-08 07:00:00,
2013-06-08 03:01:00,59.3,57.6,29.62,North,5,4.0,15.0,94,0.02,,OVC014,0.11,VWS V14.00,2013-06-08 07:01:00,
2013-06-08 03:06:00,59.1,57.4,29.62,NNW,342,3.0,15.0,94,0.02,,OVC014,0.11,VWS V14.00,2013-06-08 07:06:00,
2013-06-08 03:11:00,58.9,57.2,29.63,NNW,342,5.0,15.0,94,0.02,,OVC014,0.11,VWS V14.00,2013-06-08 07:11:00,
2013-06-08 03:16:00,58.8,57.1,29.64,NNW,330,7.0,15.0,94,0.02,,OVC014,0.11,VWS V14.00,2013-06-08 07:16:00,
2013-06-08 03:21:00,58.7,57.0,29.64,NNW,328,5.0,15.0,94,0.02,,OVC014,0.11,VWS V14.00,2013-06-08 07:21:00,
2013-06-08 03:26:00,58.6,56.6,29.64,NW,307,4.0,15.0,93,0.02,,OVC014,0.11,VWS V14.00,2013-06-08 07:26:00,
2013-06-08 03:30:00,58.6,56.6,29.65,WNW,293,4.0,15.0,93,0.02,,OVC009,0.11,VWS V14.00,2013-06-08 07:30:00,
2013-06-08 03:31:00,58.6,56.6,29.65,NW,309,4.0,7.0,93,0.01,,OVC014,0.11,VWS V14.00,2013-06-08 07:31:00,
2013-06-08 03:36:00,58.6,56.6,29.64,NNW,347,3.0,12.0,93,0.01,,OVC014,0.11,VWS V14.00,2013-06-08 07:36:00,
2013-06-08 03:42:00,58.6,56.6,29.65,NNW,330,5.0,12.0,93,0.01,,OVC039,0.11,VWS V14.00,2013-06-08 07:42:00,
2013-06-08 03:47:00,58.6,56.6,29.65,ENE,67,2.0,12.0,93,0.01,,OVC039,0.11,VWS V14.00,2013-06-08 07:47:00,
2013-06-08 03:52:00,58.6,56.6,29.65,WNW,300,4.0,12.0,93,0.01,,OVC039,0.11,VWS V14.00,2013-06-08 07:52:00,
2013-06-08 03:57:00,58.6,56.6,29.65,NW,308,2.0,12.0,93,0.01,,OVC039,0.11,VWS V14.00,2013-06-08 07:57:00,
2013-06-08 04:00:00,58.6,56.6,29.65,NW,315,6.0,12.0,93,0.01,,OVC009,0.11,VWS V14.00,2013-06-08 08:00:00,
2013-06-08 04:02:00,58.6,56.6,29.66,NW,315,5.0,7.0,93,0.00,,BKN047,0.11,VWS V14.00,2013-06-08 08:02:00,
2013-06-08 04:07:00,58.6,56.6,29.67,WNW,302,1.0,7.0,93,0.00,,BKN047,0.11,VWS V14.00,2013-06-08 08:07:00,
2013-06-08 04:12:00,58.6,56.6,29.67,NNW,342,1.0,7.0,93,0.00,,BKN047,0.11,VWS V14.00,2013-06-08 08:12:00,
2013-06-08 04:17:00,58.6,56.6,29.67,NNW,339,2.0,7.0,93,0.00,,BKN047,0.11,VWS V14.00,2013-06-08 08:17:00,
2013-06-08 04:22:00,58.7,56.7,29.67,NNW,343,1.0,7.0,93,0.00,,BKN047,0.11,VWS V14.00,2013-06-08 08:22:00,
2013-06-08 04:27:00,58.6,56.6,29.67,SW,234,1.0,7.0,93,0.00,,BKN047,0.11,VWS V14.00,2013-06-08 08:27:00,
2013-06-08 04:30:00,58.6,56.6,29.68,North,356,3.0,7.0,93,0.00,,OVC009,0.11,VWS V14.00,2013-06-08 08:30:00,
2013-06-08 04:33:00,58.6,56.6,29.68,NW,310,2.0,6.0,93,0.00,,BKN047,0.11,VWS V14.00,2013-06-08 08:33:00,
2013-06-08 04:38:00,58.7,56.7,29.68,NNW,333,0.0,6.0,93,0.00,,BKN047,0.11,VWS V14.00,2013-06-08 08:38:00,
2013-06-08 04:43:00,58.6,56.6,29.69,NNW,328,1.0,6.0,93,0.00,,BKN047,0.11,VWS V14.00,2013-06-08 08:43:00,
2013-06-08 04:48:00,58.5,56.5,29.70,NE,35,0.0,6.0,93,0.00,,BKN047,0.11,VWS V14.00,2013-06-08 08:48:00,
2013-06-08 04:53:00,58.4,56.4,29.70,NNW,336,2.0,6.0,93,0.00,,BKN047,0.11,VWS V14.00,2013-06-08 08:53:00,
2013-06-08 04:58:00,58.5,56.5,29.71,WNW,299,0.0,6.0,93,0.00,,BKN047,0.11,VWS V14.00,2013-06-08 08:58:00,
2013-06-08 05:00:00,58.5,56.5,29.71,WNW,299,0.0,6.0,93,0.00,,OVC009,0.11,VWS V14.00,2013-06-08 09:00:00,
2013-06-08 05:03:00,58.5,56.5,29.71,NNW,338,0.0,2.0,93,0.00,,SCT040,0.11,VWS V14.00,2013-06-08 09:03:00,
2013-06-08 05:08:00,58.3,56.3,29.72,NNW,338,0.0,2.0,93,0.00,,SCT040,0.11,VWS V14.00,2013-06-08 09:08:00,
2013-06-08 05:13:00,58.3,56.6,29.72,ESE,115,0.0,2.0,94,0.00,,SCT040,0.11,VWS V14.00,2013-06-08 09:13:00,
2013-06-08 05:18:00,58.3,56.6,29.72,NNW,341,2.0,2.0,94,0.00,,SCT040,0.11,VWS V14.00,2013-06-08 09:18:00,
2013-06-08 05:24:00,58.3,56.6,29.72,NNW,341,0.0,2.0,94,0.00,,SCT040,0.11,VWS V14.00,2013-06-08 09:24:00,
2013-06-08 05:29:00,58.1,56.4,29.73,NNW,341,1.0,2.0,94,0.00,,SCT040,0.11,VWS V14.00,2013-06-08 09:29:00,
2013-06-08 05:30:00,58.1,56.4,29.73,West,273,1.0,2.0,94,0.00,,OVC009,0.11,VWS V14.00,2013-06-08 09:30:00,
2013-06-08 05:34:00,58.1,56.4,29.74,West,273,0.0,1.0,94,0.00,,SCT040,0.11,VWS V14.00,2013-06-08 09:34:00,
2013-06-08 05:39:00,58.0,56.3,29.74,West,273,0.0,1.0,94,0.00,,SCT040,0.11,VWS V14.00,2013-06-08 09:39:00,
2013-06-08 05:44:00,57.9,56.2,29.75,West,264,1.0,1.0,94,0.00,,SCT040,0.11,VWS V14.00,2013-06-08 09:44:00,
2013-06-08 05:49:00,57.9,56.5,29.75,SSE,152,0.0,2.0,95,0.00,,SCT040,0.11,VWS V14.00,2013-06-08 09:49:00,
2013-06-08 05:54:00,57.9,56.5,29.75,South,172,1.0,2.0,95,0.00,,SCT040,0.11,VWS V14.00,2013-06-08 09:54:00,
2013-06-08 05:59:00,57.9,56.5,29.76,South,174,0.0,2.0,95,0.00,,SCT040,0.11,VWS V14.00,2013-06-08 09:59:00,
2013-06-08 06:00:00,57.9,56.5,29.76,South,174,0.0,2.0,95,0.00,,OVC009,0.11,VWS V14.00,2013-06-08 10:00:00,
2013-06-08 06:04:00,57.9,56.5,29.76,South,174,0.0,0.0,95,0.00,,CLR,0.11,VWS V14.00,2013-06-08 10:04:00,
2013-06-08 06:09:00,58.0,56.6,29.76,South,191,0.0,0.0,95,0.00,,CLR,0.11,VWS V14.00,2013-06-08 10:09:00,
2013-06-08 06:14:00,58.2,56.8,29.77,SSW,207,0.0,1.0,95,0.00,,CLR,0.11,VWS V14.00,2013-06-08 10:14:00,
2013-06-08 06:20:00,58.4,57.0,29.78,West,276,1.0,3.0,95,0.00,,CLR,0.11,VWS V14.00,2013-06-08 10:20:00,
2013-06-08 06:25:00,58.7,57.3,29.79,East,96,1.0,3.0,95,0.00,,CLR,0.11,VWS V14.00,2013-06-08 10:25:00,
2013-06-08 06:30:00,59.0,57.6,29.79,SSW,200,0.0,2.0,95,0.00,,CLR,0.11,VWS V14.00,2013-06-08 10:30:00,
2013-06-08 06:35:00,59.4,58.0,29.79,SSW,194,1.0,3.0,95,0.00,,CLR,0.11,VWS V14.00,2013-06-08 10:35:00,
2013-06-08 06:40:00,60.0,58.6,29.79,WSW,257,1.0,3.0,95,0.00,,CLR,0.11,VWS V14.00,2013-06-08 10:40:00,
2013-06-08 06:45:00,60.6,59.2,29.79,South,169,0.0,3.0,95,0.00,,CLR,0.11,VWS V14.00,2013-06-08 10:45:00,
2013-06-08 06:50:00,61.4,59.7,29.79,SSE,156,0.0,3.0,94,0.00,,CLR,0.11,VWS V14.00,2013-06-08 10:50:00,
2013-06-08 06:55:00,62.1,60.1,29.79,SW,232,1.0,3.0,93,0.00,,CLR,0.11,VWS V14.00,2013-06-08 10:55:00,
2013-06-08 07:00:00,62.8,60.5,29.80,SE,135,0.0,1.0,92,0.00,,CLR,0.11,VWS V14.00,2013-06-08 11:00:00,
2013-06-08 07:05:00,63.5,60.8,29.80,WSW,251,1.0,1.0,91,0.00,,FEW019,0.11,VWS V14.00,2013-06-08 11:05:00,
2013-06-08 07:10:00,64.1,61.1,29.80,South,186,0.0,2.0,90,0.00,,FEW019,0.11,VWS V14.00,2013-06-08 11:10:00,
2013-06-08 07:15:00,65.0,62.0,29.81,SSW,205,0.0,2.0,90,0.00,,FEW019,0.11,VWS V14.00,2013-06-08 11:15:00,
2013-06-08 07:20:00,65.7,62.4,29.81,North,352,1.0,2.0,89,0.00,,FEW019,0.11,VWS V14.00,2013-06-08 11:20:00,
2013-06-08 07:25:00,66.3,62.3,29.81,West,262,1.0,2.0,87,0.00,,FEW019,0.11,VWS V14.00,2013-06-08 11:25:00,
2013-06-08 07:30:00,66.5,62.2,29.81,SW,224,2.0,3.0,86,0.00,,OVC009,0.11,VWS V14.00,2013-06-08 11:30:00,
2013-06-08 07:31:00,66.5,62.2,29.81,SSW,196,1.0,4.0,86,0.00,,FEW019,0.11,VWS V14.00,2013-06-08 11:31:00,
2013-06-08 07:36:00,67.0,62.3,29.81,NW,322,0.0,4.0,85,0.00,,FEW019,0.11,VWS V14.00,2013-06-08 11:36:00,
2013-06-08 07:41:00,67.7,62.7,29.81,SW,231,1.0,4.0,84,0.00,,FEW019,0.11,VWS V14.00,2013-06-08 11:41:00,
2013-06-08 07:47:00,68.0,63.0,29.82,West,280,2.0,5.0,84,0.00,,FEW019,0.11,VWS V14.00,2013-06-08 11:47:00,
2013-06-08 07:52:00,68.0,62.3,29.82,West,270,2.0,5.0,82,0.00,,FEW019,0.11,VWS V14.00,2013-06-08 11:52:00,
2013-06-08 07:57:00,68.0,63.0,29.82,West,273,2.0,5.0,84,0.00,,FEW019,0.11,VWS V14.00,2013-06-08 11:57:00,
2013-06-08 08:00:00,67.9,62.5,29.83,West,267,1.0,5.0,83,0.00,,OVC009,0.11,VWS V14.00,2013-06-08 12:00:00,
2013-06-08 08:02:00,67.9,62.9,29.83,SE,135,0.0,1.0,84,0.00,,FEW017,0.11,VWS V14.00,2013-06-08 12:02:00,
2013-06-08 08:07:00,68.1,62.8,29.84,WNW,297,0.0,4.0,83,0.00,,FEW017,0.11,VWS V14.00,2013-06-08 12:07:00,
2013-06-08 08:12:00,68.4,63.4,29.84,SSW,195,2.0,4.0,84,0.00,,FEW017,0.11,VWS V14.00,2013-06-08 12:12:00,
2013-06-08 08:17:00,69.0,63.6,29.84,South,186,1.0,4.0,83,0.00,,FEW017,0.11,VWS V14.00,2013-06-08 12:17:00,
2013-06-08 08:22:00,69.2,63.5,29.84,WNW,288,1.0,5.0,82,0.00,,FEW017,0.11,VWS V14.00,2013-06-08 12:22:00,
2013-06-08 08:28:00,69.2,63.1,29.84,NNW,328,1.0,5.0,81,0.00,,FEW017,0.11,VWS V14.00,2013-06-08 12:28:00,
2013-06-08 08:30:00,69.2,63.1,29.84,ESE,121,1.0,5.0,81,0.00,,OVC009,0.11,VWS V14.00,2013-06-08 12:30:00,
2013-06-08 08:33:00,69.1,63.0,29.85,WNW,287,3.0,4.0,81,0.00,,BKN019,0.11,VWS V14.00,2013-06-08 12:33:00,
2013-06-08 08:38:00,68.7,62.6,29.85,West,281,1.0,5.0,81,0.00,,BKN019,0.11,VWS V14.00,2013-06-08 12:38:00,
2013-06-08 08:43:00,68.7,63.0,29.85,WNW,300,0.0,5.0,82,0.00,,BKN019,0.11,VWS V14.00,2013-06-08 12:43:00,
2013-06-08 08:48:00,69.1,63.0,29.85,North,6,1.0,5.0,81,0.00,,BKN019,0.11,VWS V14.00,2013-06-08 12:48:00,
2013-06-08 08:53:00,69.3,62.9,29.85,WNW,303,2.0,5.0,80,0.00,,BKN019,0.11,VWS V14.00,2013-06-08 12:53:00,
2013-06-08 08:58:00,69.3,63.6,29.85,NW,314,2.0,5.0,82,0.00,,BKN019,0.11,VWS V14.00,2013-06-08 12:58:00,
2013-06-08 09:00:00,69.3,62.9,29.85,NNW,338,3.0,6.0,80,0.00,,OVC009,0.11,VWS V14.00,2013-06-08 13:00:00,
2013-06-08 09:04:00,69.2,62.8,29.86,NNW,331,3.0,6.0,80,0.00,,OVC019,0.11,VWS V14.00,2013-06-08 13:04:00,
2013-06-08 09:09:00,69.2,63.1,29.86,NE,34,4.0,6.0,81,0.00,,OVC019,0.11,VWS V14.00,2013-06-08 13:09:00,
2013-06-08 09:14:00,69.9,63.5,29.86,NW,316,1.0,6.0,80,0.00,,OVC019,0.11,VWS V14.00,2013-06-08 13:14:00,
2013-06-08 09:19:00,70.1,63.3,29.86,NE,50,1.0,6.0,79,0.00,,OVC019,0.11,VWS V14.00,2013-06-08 13:19:00,
2013-06-08 09:24:00,70.5,63.3,29.86,SSE,156,1.0,6.0,78,0.00,,OVC019,0.11,VWS V14.00,2013-06-08 13:24:00,
2013-06-08 09:29:00,70.5,63.0,29.86,WNW,300,7.0,7.0,77,0.00,,OVC019,0.11,VWS V14.00,2013-06-08 13:29:00,
2013-06-08 09:30:00,70.5,63.0,29.86,WNW,300,7.0,7.0,77,0.00,,OVC009,0.11,VWS V14.00,2013-06-08 13:30:00,
2013-06-08 09:34:00,70.5,63.0,29.87,North,1,1.0,7.0,77,0.00,,OVC019,0.11,VWS V14.00,2013-06-08 13:34:00,
2013-06-08 09:39:00,70.2,62.3,29.87,WNW,297,0.0,7.0,76,0.00,,OVC019,0.11,VWS V14.00,2013-06-08 13:39:00,
2013-06-08 09:45:00,70.1,62.2,29.87,WNW,283,1.0,7.0,76,0.00,,OVC019,0.11,VWS V14.00,2013-06-08 13:45:00,
2013-06-08 09:50:00,69.9,62.0,29.87,NNW,329,4.0,7.0,76,0.00,,OVC019,0.11,VWS V14.00,2013-06-08 13:50:00,
2013-06-08 09:55:00,69.7,62.2,29.88,NW,326,0.0,7.0,77,0.00,,OVC019,0.11,VWS V14.00,2013-06-08 13:55:00,
2013-06-08 10:00:00,69.9,62.7,29.88,North,359,4.0,4.0,78,0.00,,OVC019,0.11,VWS V14.00,2013-06-08 14:00:00,
2013-06-08 10:05:00,69.9,62.4,29.87,East,101,2.0,6.0,77,0.00,,OVC019,0.11,VWS V14.00,2013-06-08 14:05:00,
2013-06-08 10:11:00,70.0,62.5,29.88,North,352,3.0,6.0,77,0.00,,OVC019,0.11,VWS V14.00,2013-06-08 14:11:00,
2013-06-08 10:16:00,70.5,63.3,29.88,WNW,288,0.0,6.0,78,0.00,,OVC019,0.11,VWS V14.00,2013-06-08 14:16:00,
2013-06-08 10:21:00,70.9,62.6,29.89,NNW,340,1.0,7.0,75,0.00,,OVC019,0.11,VWS V14.00,2013-06-08 14:21:00,
2013-06-08 10:26:00,70.7,62.4,29.89,WNW,290,2.0,7.0,75,0.00,,OVC019,0.11,VWS V14.00,2013-06-08 14:26:00,
2013-06-08 10:30:00,70.6,62.7,29.89,WNW,293,2.0,8.0,76,0.00,,OVC009,0.11,VWS V14.00,2013-06-08 14:30:00,
2013-06-08 10:31:00,70.7,62.8,29.89,North,359,2.0,3.0,76,0.00,,OVC019,0.11,VWS V14.00,2013-06-08 14:31:00,
2013-06-08 10:36:00,71.0,63.1,29.89,NW,319,2.0,5.0,76,0.00,,OVC019,0.11,VWS V14.00,2013-06-08 14:36:00,
2013-06-08 10:41:00,71.2,64.0,29.89,WSW,248,2.0,5.0,78,0.00,,OVC019,0.11,VWS V14.00,2013-06-08 14:41:00,
2013-06-08 10:47:00,71.5,62.4,29.90,NNW,335,1.0,5.0,73,0.00,,OVC019,0.11,VWS V14.00,2013-06-08 14:47:00,
2013-06-08 10:52:00,72.0,63.3,29.90,NW,315,3.0,5.0,74,0.00,,OVC019,0.11,VWS V14.00,2013-06-08 14:52:00,
2013-06-08 10:57:00,71.9,62.8,29.90,NNE,20,1.0,5.0,73,0.00,,OVC019,0.11,VWS V14.00,2013-06-08 14:57:00,
2013-06-08 11:00:00,71.8,63.1,29.90,NW,321,2.0,5.0,74,0.00,,OVC009,0.11,VWS V14.00,2013-06-08 15:00:00,
2013-06-08 11:02:00,71.9,63.5,29.90,West,277,0.0,3.0,75,0.00,,BKN025,0.11,VWS V14.00,2013-06-08 15:02:00,
2013-06-08 11:08:00,72.5,63.8,29.90,West,278,1.0,4.0,74,0.00,,BKN025,0.11,VWS V14.00,2013-06-08 15:08:00,
2013-06-08 11:13:00,72.7,63.2,29.90,ENE,69,1.0,5.0,72,0.00,,BKN025,0.11,VWS V14.00,2013-06-08 15:13:00,
2013-06-08 11:18:00,72.9,63.8,29.90,NNE,24,2.0,5.0,73,0.00,,BKN025,0.11,VWS V14.00,2013-06-08 15:18:00,
2013-06-08 11:23:00,73.3,63.7,29.91,WNW,290,1.0,5.0,72,0.00,,BKN025,0.11,VWS V14.00,2013-06-08 15:23:00,
2013-06-08 11:28:00,73.7,63.7,29.91,North,3,3.0,8.0,71,0.00,,BKN025,0.11,VWS V14.00,2013-06-08 15:28:00,
2013-06-08 11:30:00,73.7,63.7,29.91,NNW,345,1.0,8.0,71,0.00,,OVC009,0.11,VWS V14.00,2013-06-08 15:30:00,
2013-06-08 11:33:00,73.9,63.9,29.91,NW,319,3.0,5.0,71,0.00,,BKN025,0.11,VWS V14.00,2013-06-08 15:33:00,
2013-06-08 11:38:00,73.5,63.9,29.91,West,269,1.0,9.0,72,0.00,,BKN025,0.11,VWS V14.00,2013-06-08 15:38:00,
2013-06-08 11:44:00,73.3,62.9,29.91,North,351,3.0,9.0,70,0.00,,BKN025,0.11,VWS V14.00,2013-06-08 15:44:00,
2013-06-08 11:49:00,73.6,64.0,29.91,WNW,285,2.0,9.0,72,0.00,,BKN025,0.11,VWS V14.00,2013-06-08 15:49:00,
2013-06-08 11:54:00,74.3,64.7,29.91,NW,314,1.0,9.0,72,0.00,,BKN025,0.11,VWS V14.00,2013-06-08 15:54:00,
2013-06-08 11:59:00,74.9,64.5,29.91,NW,307,5.0,9.0,70,0.00,,BKN025,0.11,VWS V14.00,2013-06-08 15:59:00,
2013-06-08 12:00:00,74.8,64.4,29.91,NW,315,5.0,9.0,70,0.00,,OVC009,0.11,VWS V14.00,2013-06-08 16:00:00,
2013-06-08 12:04:00,75.3,64.4,29.91,NNW,336,2.0,5.0,69,0.00,,OVC027,0.11,VWS V14.00,2013-06-08 16:04:00,
2013-06-08 12:09:00,75.7,64.4,29.91,WNW,301,1.0,5.0,68,0.00,,OVC027,0.11,VWS V14.00,2013-06-08 16:09:00,
2013-06-08 12:14:00,76.6,66.1,29.91,West,264,2.0,5.0,70,0.00,,OVC027,0.11,VWS V14.00,2013-06-08 16:14:00,
2013-06-08 12:19:00,76.6,64.4,29.91,West,266,0.0,5.0,66,0.00,,OVC027,0.11,VWS V14.00,2013-06-08 16:19:00,
2013-06-08 12:24:00,76.2,64.9,29.92,West,261,1.0,5.0,68,0.00,,OVC027,0.11,VWS V14.00,2013-06-08 16:24:00,
2013-06-08 12:29:00,75.9,65.4,29.92,North,1,1.0,5.0,70,0.00,,OVC027,0.11,VWS V14.00,2013-06-08 16:29:00,
2013-06-08 12:30:00,75.9,65.4,29.92,North,1,1.0,5.0,70,0.00,,OVC009,0.11,VWS V14.00,2013-06-08 16:30:00,
2013-06-08 12:34:00,75.8,65.3,29.92,NW,312,0.0,4.0,70,0.00,,OVC027,0.11,VWS V14.00,2013-06-08 16:34:00,
2013-06-08 12:39:00,75.6,64.7,29.91,West,276,1.0,4.0,69,0.00,,OVC027,0.11,VWS V14.00,2013-06-08 16:39:00,
2013-06-08 12:45:00,75.7,64.8,29.92,NW,325,1.0,4.0,69,0.00,,OVC027,0.11,VWS V14.00,2013-06-08 16:45:00,
2013-06-08 12:50:00,75.4,64.1,29.92,WNW,284,1.0,4.0,68,0.00,,OVC027,0.11,VWS V14.00,2013-06-08 16:50:00,
2013-06-08 12:55:00,75.1,65.1,29.92,NNW,344,2.0,4.0,71,0.00,,OVC027,0.11,VWS V14.00,2013-06-08 16:55:00,
2013-06-08 13:00:00,74.9,64.9,29.92,West,269,1.0,2.0,71,0.00,,OVC027,0.11,VWS V14.00,2013-06-08 17:00:00,
2013-06-08 13:05:00,74.8,64.4,29.92,SSW,213,1.0,4.0,70,0.00,,OVC033,0.11,VWS V14.00,2013-06-08 17:05:00,
2013-06-08 13:10:00,74.3,64.7,29.92,WSW,250,0.0,5.0,72,0.00,,OVC033,0.11,VWS V14.00,2013-06-08 17:10:00,
2013-06-08 13:15:00,73.9,64.7,29.92,WNW,288,1.0,6.0,73,0.00,,OVC033,0.11,VWS V14.00,2013-06-08 17:15:00,
2013-06-08 13:20:00,74.2,65.0,29.92,SW,214,0.0,6.0,73,0.00,,OVC033,0.11,VWS V14.00,2013-06-08 17:20:00,
2013-06-08 13:25:00,74.9,65.3,29.91,WSW,250,2.0,6.0,72,0.00,,BKN036,0.11,VWS V14.00,2013-06-08 17:25:00,
2013-06-08 13:30:00,74.9,65.3,29.92,NW,311,1.0,6.0,72,0.00,,OVC009,0.11,VWS V14.00,2013-06-08 17:30:00,
2013-06-08 13:31:00,75.0,65.4,29.92,NW,311,0.0,1.0,72,0.00,,BKN036,0.11,VWS V14.00,2013-06-08 17:31:00,
2013-06-08 13:36:00,74.8,65.2,29.91,East,94,0.0,5.0,72,0.00,,BKN036,0.11,VWS V14.00,2013-06-08 17:36:00,
2013-06-08 13:41:00,74.6,65.4,29.92,South,184,1.0,5.0,73,0.00,,BKN036,0.11,VWS V14.00,2013-06-08 17:41:00,
2013-06-08 13:46:00,74.6,65.8,29.92,ESE,118,0.0,5.0,74,0.00,,BKN036,0.11,VWS V14.00,2013-06-08 17:46:00,
2013-06-08 13:51:00,74.6,65.0,29.92,WSW,248,1.0,5.0,72,0.00,,BKN036,0.11,VWS V14.00,2013-06-08 17:51:00,
2013-06-08 13:56:00,74.8,65.6,29.91,SSE,152,1.0,5.0,73,0.00,,BKN036,0.11,VWS V14.00,2013-06-08 17:56:00,
2013-06-08 14:00:00,75.0,65.4,29.91,NNE,29,0.0,5.0,72,0.00,,OVC009,0.11,VWS V14.00,2013-06-08 18:00:00,
2013-06-08 14:01:00,75.1,65.9,29.92,NNE,28,0.0,0.0,73,0.00,,SCT037,0.11,VWS V14.00,2013-06-08 18:01:00,
2013-06-08 14:06:00,74.9,65.3,29.91,WSW,246,1.0,3.0,72,0.00,,SCT037,0.11,VWS V14.00,2013-06-08 18:06:00,
2013-06-08 14:11:00,74.2,64.6,29.91,West,269,2.0,4.0,72,0.00,,SCT037,0.11,VWS V14.00,2013-06-08 18:11:00,
2013-06-08 14:16:00,73.9,64.3,29.91,NNE,18,1.0,4.0,72,0.00,,SCT037,0.11,VWS V14.00,2013-06-08 18:16:00,
2013-06-08 14:21:00,73.9,64.7,29.91,NW,305,0.0,4.0,73,0.00,,OVC037,0.11,VWS V14.00,2013-06-08 18:21:00,
2013-06-08 14:27:00,74.0,64.8,29.91,NW,316,0.0,4.0,73,0.00,,OVC037,0.11,VWS V14.00,2013-06-08 18:27:00,
2013-06-08 14:30:00,73.9,64.7,29.91,NW,307,0.0,4.0,73,0.00,,OVC009,0.11,VWS V14.00,2013-06-08 18:30:00,
2013-06-08 14:32:00,74.0,64.8,29.91,NW,307,0.0,0.0,73,0.00,,BKN038,0.11,VWS V14.00,2013-06-08 18:32:00,
2013-06-08 14:37:00,74.2,65.4,29.92,WSW,239,2.0,2.0,74,0.00,,BKN038,0.11,VWS V14.00,2013-06-08 18:37:00,
2013-06-08 14:42:00,74.4,64.8,29.91,SSW,208,1.0,2.0,72,0.00,,BKN038,0.11,VWS V14.00,2013-06-08 18:42:00,
2013-06-08 14:47:00,74.6,65.8,29.92,SE,145,0.0,2.0,74,0.00,,BKN038,0.11,VWS V14.00,2013-06-08 18:47:00,
2013-06-08 14:52:00,74.8,65.6,29.92,NW,305,0.0,2.0,73,0.00,,BKN038,0.11,VWS V14.00,2013-06-08 18:52:00,
2013-06-08 14:57:00,74.7,65.1,29.92,WNW,288,1.0,2.0,72,0.00,,BKN038,0.11,VWS V14.00,2013-06-08 18:57:00,
2013-06-08 15:00:00,74.7,65.5,29.91,WNW,285,1.0,2.0,73,0.00,,OVC009,0.11,VWS V14.00,2013-06-08 19:00:00,
2013-06-08 15:02:00,74.8,65.2,29.91,SE,129,0.0,1.0,72,0.00,,BKN120,0.11,VWS V14.00,2013-06-08 19:02:00,
2013-06-08 15:08:00,75.1,65.1,29.92,NW,326,0.0,1.0,71,0.00,,BKN120,0.11,VWS V14.00,2013-06-08 19:08:00,
2013-06-08 15:13:00,75.0,65.0,29.91,NNW,333,0.0,1.0,71,0.00,,BKN120,0.11,VWS V14.00,2013-06-08 19:13:00,
2013-06-08 15:18:00,74.8,65.2,29.91,NW,311,1.0,2.0,72,0.00,,BKN120,0.11,VWS V14.00,2013-06-08 19:18:00,
2013-06-08 15:23:00,74.8,64.8,29.92,NNW,332,0.0,5.0,71,0.00,,BKN120,0.11,VWS V14.00,2013-06-08 19:23:00,
2013-06-08 15:28:00,75.1,65.5,29.92,West,281,0.0,5.0,72,0.00,,BKN120,0.11,VWS V14.00,2013-06-08 19:28:00,
2013-06-08 15:30:00,75.5,66.2,29.92,North,6,0.0,5.0,73,0.00,,OVC009,0.11,VWS V14.00,2013-06-08 19:30:00,
2013-06-08 15:33:00,76.9,66.8,29.91,East,94,1.0,2.0,71,0.00,,BKN120,0.11,VWS V14.00,2013-06-08 19:33:00,
2013-06-08 15:38:00,77.9,66.1,29.92,NNE,14,1.0,4.0,67,0.00,,BKN120,0.11,VWS V14.00,2013-06-08 19:38:00,
2013-06-08 15:43:00,78.0,66.2,29.92,SSE,148,2.0,4.0,67,0.00,,BKN120,0.11,VWS V14.00,2013-06-08 19:43:00,
2013-06-08 15:48:00,78.9,67.0,29.92,NW,314,3.0,4.0,67,0.00,,BKN120,0.11,VWS V14.00,2013-06-08 19:48:00,
2013-06-08 15:53:00,78.6,65.9,29.92,NW,323,5.0,6.0,65,0.00,,BKN120,0.11,VWS V14.00,2013-06-08 19:53:00,
2013-06-08 15:59:00,77.5,64.8,29.92,NNW,340,4.0,6.0,65,0.00,,BKN120,0.11,VWS V14.00,2013-06-08 19:59:00,
2013-06-08 16:00:00,77.3,64.6,29.92,NNW,336,1.0,6.0,65,0.00,,OVC009,0.11,VWS V14.00,2013-06-08 20:00:00,
2013-06-08 16:04:00,76.5,65.2,29.93,NNW,333,1.0,4.0,68,0.00,,BKN045,0.11,VWS V14.00,2013-06-08 20:04:00,
2013-06-08 16:09:00,76.0,65.1,29.93,NNW,347,1.0,4.0,69,0.00,,BKN045,0.11,VWS V14.00,2013-06-08 20:09:00,
2013-06-08 16:14:00,75.9,65.8,29.93,North,3,1.0,4.0,71,0.00,,BKN045,0.11,VWS V14.00,2013-06-08 20:14:00,
2013-06-08 16:19:00,76.2,65.3,29.94,NNW,341,1.0,7.0,69,0.00,,BKN045,0.11,VWS V14.00,2013-06-08 20:19:00,
2013-06-08 16:24:00,75.8,64.9,29.94,NW,315,0.0,7.0,69,0.00,,BKN045,0.11,VWS V14.00,2013-06-08 20:24:00,
2013-06-08 16:29:00,76.3,65.8,29.93,NNE,26,1.0,7.0,70,0.00,,BKN045,0.11,VWS V14.00,2013-06-08 20:29:00,
2013-06-08 16:30:00,76.3,65.8,29.93,NNE,26,1.0,7.0,70,0.00,,OVC009,0.11,VWS V14.00,2013-06-08 20:30:00,
2013-06-08 16:35:00,76.2,65.3,29.93,NNW,342,1.0,5.0,69,0.00,,BKN045,0.11,VWS V14.00,2013-06-08 20:35:00,
2013-06-08 16:40:00,75.5,65.4,29.93,NW,316,1.0,5.0,71,0.00,,BKN045,0.11,VWS V14.00,2013-06-08 20:40:00,
2013-06-08 16:45:00,75.3,64.8,29.94,NNW,337,1.0,5.0,70,0.00,,BKN045,0.11,VWS V14.00,2013-06-08 20:45:00,
2013-06-08 16:50:00,75.4,65.3,29.93,NNW,338,1.0,5.0,71,0.00,,BKN045,0.11,VWS V14.00,2013-06-08 20:50:00,
2013-06-08 16:55:00,75.6,65.1,29.93,NW,305,1.0,5.0,70,0.00,,BKN045,0.11,VWS V14.00,2013-06-08 20:55:00,
2013-06-08 17:00:00,76.4,65.5,29.93,WNW,294,0.0,3.0,69,0.00,,BKN045,0.11,VWS V14.00,2013-06-08 21:00:00,
2013-06-08 17:05:00,77.4,65.6,29.94,WNW,298,1.0,3.0,67,0.00,,SCT055,0.11,VWS V14.00,2013-06-08 21:05:00,
2013-06-08 17:10:00,77.8,65.1,29.94,NNW,329,1.0,3.0,65,0.00,,SCT055,0.11,VWS V14.00,2013-06-08 21:10:00,
2013-06-08 17:15:00,77.4,65.2,29.94,SE,129,2.0,3.0,66,0.00,,SCT055,0.11,VWS V14.00,2013-06-08 21:15:00,
2013-06-08 17:21:00,77.5,65.7,29.94,North,8,4.0,7.0,67,0.00,,SCT055,0.11,VWS V14.00,2013-06-08 21:21:00,
2013-06-08 17:26:00,77.6,65.8,29.94,NNE,15,1.0,7.0,67,0.00,,SCT055,0.11,VWS V14.00,2013-06-08 21:26:00,
2013-06-08 17:30:00,77.9,66.5,29.94,SSE,156,1.0,7.0,68,0.00,,OVC009,0.11,VWS V14.00,2013-06-08 21:30:00,
2013-06-08 17:31:00,78.1,65.4,29.94,NW,325,2.0,2.0,65,0.00,,SCT055,0.11,VWS V14.00,2013-06-08 21:31:00,
2013-06-08 17:36:00,78.4,65.2,29.94,NW,304,1.0,3.0,64,0.00,,SCT055,0.11,VWS V14.00,2013-06-08 21:36:00,
2013-06-08 17:42:00,78.6,65.0,29.95,NW,304,1.0,5.0,63,0.00,,SCT055,0.11,VWS V14.00,2013-06-08 21:42:00,
2013-06-08 17:47:00,77.4,64.3,29.95,West,266,0.0,5.0,64,0.00,,SCT055,0.11,VWS V14.00,2013-06-08 21:47:00,
2013-06-08 17:52:00,76.9,64.2,29.94,NNW,333,1.0,5.0,65,0.00,,SCT055,0.11,VWS V14.00,2013-06-08 21:52:00,
2013-06-08 17:57:00,77.0,64.3,29.94,NW,322,1.0,5.0,65,0.00,,SCT055,0.11,VWS V14.00,2013-06-08 21:57:00,
2013-06-08 18:00:00,77.1,64.9,29.94,NW,316,0.0,5.0,66,0.00,,OVC009,0.11,VWS V14.00,2013-06-08 22:00:00,
2013-06-08 18:02:00,77.5,64.8,29.94,NNW,328,0.0,3.0,65,0.00,,FEW033,0.11,VWS V14.00,2013-06-08 22:02:00,
2013-06-08 18:07:00,78.0,65.3,29.94,WSW,239,0.0,3.0,65,0.00,,FEW033,0.11,VWS V14.00,2013-06-08 22:07:00,
2013-06-08 18:13:00,78.5,65.3,29.95,South,187,0.0,3.0,64,0.00,,FEW033,0.11,VWS V14.00,2013-06-08 22:13:00,
2013-06-08 18:18:00,78.3,64.7,29.95,WSW,243,0.0,3.0,63,0.00,,FEW033,0.11,VWS V14.00,2013-06-08 22:18:00,
2013-06-08 18:23:00,77.9,64.8,29.95,SW,235,1.0,3.0,64,0.00,,FEW033,0.11,VWS V14.00,2013-06-08 22:23:00,
2013-06-08 18:28:00,77.1,64.4,29.95,SW,235,0.0,3.0,65,0.00,,FEW033,0.11,VWS V14.00,2013-06-08 22:28:00,
2013-06-08 18:30:00,77.0,65.2,29.96,SW,235,0.0,3.0,67,0.00,,OVC009,0.11,VWS V14.00,2013-06-08 22:30:00,
2013-06-08 18:33:00,76.7,65.3,29.96,NW,321,0.0,1.0,68,0.00,,FEW033,0.11,VWS V14.00,2013-06-08 22:33:00,
2013-06-08 18:38:00,76.6,64.8,29.96,South,191,1.0,2.0,67,0.00,,FEW033,0.11,VWS V14.00,2013-06-08 22:38:00,
2013-06-08 18:43:00,76.3,64.1,29.96,NW,311,2.0,2.0,66,0.00,,FEW033,0.11,VWS V14.00,2013-06-08 22:43:00,
2013-06-08 18:48:00,76.0,64.3,29.96,NW,307,0.0,3.0,67,0.00,,FEW033,0.11,VWS V14.00,2013-06-08 22:48:00,
2013-06-08 18:54:00,75.6,63.9,29.97,SSW,205,1.0,3.0,67,0.00,,FEW033,0.11,VWS V14.00,2013-06-08 22:54:00,
2013-06-08 18:59:00,75.2,64.3,29.97,SE,132,1.0,3.0,69,0.00,,FEW033,0.11,VWS V14.00,2013-06-08 22:59:00,
2013-06-08 19:00:00,75.2,64.3,29.97,SE,133,0.0,3.0,69,0.00,,OVC009,0.11,VWS V14.00,2013-06-08 23:00:00,
2013-06-08 19:04:00,75.0,64.6,29.97,SE,135,0.0,1.0,70,0.00,,SCT044,0.11,VWS V14.00,2013-06-08 23:04:00,
2013-06-08 19:09:00,74.8,64.0,29.97,SSW,205,0.0,2.0,69,0.00,,SCT044,0.11,VWS V14.00,2013-06-08 23:09:00,
2013-06-08 19:14:00,74.6,64.6,29.97,SE,134,0.0,2.0,71,0.00,,SCT044,0.11,VWS V14.00,2013-06-08 23:14:00,
2013-06-08 19:19:00,74.4,64.0,29.97,SE,134,0.0,2.0,70,0.00,,SCT044,0.11,VWS V14.00,2013-06-08 23:19:00,
2013-06-08 19:24:00,74.1,63.7,29.97,SW,232,0.0,2.0,70,0.00,,SCT044,0.11,VWS V14.00,2013-06-08 23:24:00,
2013-06-08 19:29:00,73.9,63.9,29.97,SW,232,0.0,2.0,71,0.00,,SCT044,0.11,VWS V14.00,2013-06-08 23:29:00,
2013-06-08 19:30:00,73.9,63.9,29.97,SW,232,0.0,2.0,71,0.00,,OVC009,0.11,VWS V14.00,2013-06-08 23:30:00,
2013-06-08 19:34:00,73.7,64.1,29.97,SW,232,0.0,0.0,72,0.00,,SCT044,0.11,VWS V14.00,2013-06-08 23:34:00,
2013-06-08 19:40:00,73.4,64.6,29.97,SW,232,0.0,0.0,74,0.00,,SCT044,0.11,VWS V14.00,2013-06-08 23:40:00,
2013-06-08 19:45:00,73.1,64.7,29.97,SW,231,0.0,0.0,75,0.00,,SCT044,0.11,VWS V14.00,2013-06-08 23:45:00,
2013-06-08 19:50:00,73.2,64.4,29.97,SW,232,0.0,0.0,74,0.00,,SCT044,0.11,VWS V14.00,2013-06-08 23:50:00,
2013-06-08 19:55:00,73.1,65.1,29.97,SW,233,0.0,0.0,76,0.00,,SCT044,0.11,VWS V14.00,2013-06-08 23:55:00,
2013-06-08 20:00:00,72.6,65.3,29.97,SW,232,0.0,0.0,78,0.00,,SCT044,0.11,VWS V14.00,2013-06-09 00:00:00,
2013-06-08 20:05:00,71.8,64.9,29.98,SW,231,0.0,0.0,79,0.00,,CLR,0.11,VWS V14.00,2013-06-09 00:05:00,
2013-06-08 20:10:00,71.2,64.7,29.97,SW,233,0.0,0.0,80,0.00,,CLR,0.11,VWS V14.00,2013-06-09 00:10:00,
2013-06-08 20:15:00,70.6,64.8,29.98,SW,232,0.0,0.0,82,0.00,,CLR,0.11,VWS V14.00,2013-06-09 00:15:00,
2013-06-08 20:20:00,69.8,64.4,29.98,SW,231,0.0,0.0,83,0.00,,CLR,0.11,VWS V14.00,2013-06-09 00:20:00,
2013-06-08 20:26:00,69.2,64.2,29.99,SW,232,0.0,0.0,84,0.00,,CLR,0.11,VWS V14.00,2013-06-09 00:26:00,
2013-06-08 20:30:00,68.8,64.1,29.99,SW,232,0.0,0.0,85,0.00,,OVC009,0.11,VWS V14.00,2013-06-09 00:30:00,
2013-06-08 20:31:00,68.7,64.0,29.99,SW,232,0.0,0.0,85,0.00,,CLR,0.11,VWS V14.00,2013-06-09 00:31:00,
2013-06-08 20:36:00,68.3,64.0,29.99,SW,232,0.0,0.0,86,0.00,,CLR,0.11,VWS V14.00,2013-06-09 00:36:00,
2013-06-08 20:41:00,67.9,63.9,29.99,SW,234,0.0,0.0,87,0.00,,CLR,0.11,VWS V14.00,2013-06-09 00:41:00,
2013-06-08 20:46:00,67.5,63.8,29.99,SW,232,0.0,0.0,88,0.00,,CLR,0.11,VWS V14.00,2013-06-09 00:46:00,
2013-06-08 20:51:00,67.0,63.7,30.00,SW,233,0.0,0.0,89,0.00,,CLR,0.11,VWS V14.00,2013-06-09 00:51:00,
2013-06-08 20:57:00,66.5,63.2,30.00,SW,232,0.0,0.0,89,0.00,,CLR,0.11,VWS V14.00,2013-06-09 00:57:00,
2013-06-08 21:00:00,66.3,63.3,30.00,SW,232,0.0,0.0,90,0.00,,OVC009,0.11,VWS V14.00,2013-06-09 01:00:00,
2013-06-08 21:02:00,66.2,63.2,30.00,SW,233,0.0,0.0,90,0.00,,FEW041,0.11,VWS V14.00,2013-06-09 01:02:00,
2013-06-08 21:07:00,65.8,62.8,30.00,SW,233,0.0,0.0,90,0.00,,FEW041,0.11,VWS V14.00,2013-06-09 01:07:00,
2013-06-08 21:12:00,65.4,62.4,30.00,SW,232,0.0,0.0,90,0.00,,FEW041,0.11,VWS V14.00,2013-06-09 01:12:00,
2013-06-08 21:17:00,65.0,62.3,30.00,SW,233,0.0,0.0,91,0.00,,FEW041,0.11,VWS V14.00,2013-06-09 01:17:00,
2013-06-08 21:22:00,65.1,62.7,30.01,SW,232,0.0,0.0,92,0.00,,FEW041,0.11,VWS V14.00,2013-06-09 01:22:00,
2013-06-08 21:27:00,64.9,62.5,30.01,SW,233,0.0,0.0,92,0.00,,FEW041,0.11,VWS V14.00,2013-06-09 01:27:00,
2013-06-08 21:30:00,64.8,62.4,30.01,SW,233,0.0,0.0,92,0.00,,OVC009,0.11,VWS V14.00,2013-06-09 01:30:00,
2013-06-08 21:32:00,64.7,62.3,30.01,SW,233,0.0,0.0,92,0.00,,FEW041,0.11,VWS V14.00,2013-06-09 01:32:00,
2013-06-08 21:37:00,64.7,62.6,30.01,SW,233,0.0,0.0,93,0.00,,FEW041,0.11,VWS V14.00,2013-06-09 01:37:00,
2013-06-08 21:42:00,64.6,62.5,30.02,SW,232,0.0,0.0,93,0.00,,FEW041,0.11,VWS V14.00,2013-06-09 01:42:00,
2013-06-08 21:47:00,64.5,62.4,30.02,SW,232,0.0,0.0,93,0.00,,FEW041,0.11,VWS V14.00,2013-06-09 01:47:00,
2013-06-08 21:52:00,64.3,62.2,30.02,SW,231,0.0,0.0,93,0.00,,FEW041,0.11,VWS V14.00,2013-06-09 01:52:00,
2013-06-08 21:58:00,64.2,61.8,30.03,SW,232,0.0,0.0,92,0.00,,FEW041,0.11,VWS V14.00,2013-06-09 01:58:00,
2013-06-08 22:00:00,64.1,61.7,30.03,SW,232,0.0,0.0,92,0.00,,OVC009,0.11,VWS V14.00,2013-06-09 02:00:00,
2013-06-08 22:03:00,64.2,61.8,30.03,SW,232,0.0,0.0,92,0.00,,CLR,0.11,VWS V14.00,2013-06-09 02:03:00,
2013-06-08 22:08:00,64.3,61.6,30.03,ESE,120,0.0,0.0,91,0.00,,CLR,0.11,VWS V14.00,2013-06-09 02:08:00,
2013-06-08 22:13:00,64.6,61.6,30.04,ESE,120,0.0,0.0,90,0.00,,CLR,0.11,VWS V14.00,2013-06-09 02:13:00,
2013-06-08 22:18:00,65.0,61.4,30.04,North,8,0.0,1.0,88,0.00,,CLR,0.11,VWS V14.00,2013-06-09 02:18:00,
2013-06-08 22:23:00,65.3,61.7,30.04,North,9,0.0,1.0,88,0.00,,CLR,0.11,VWS V14.00,2013-06-09 02:23:00,
2013-06-08 22:28:00,65.7,61.4,30.04,ESE,111,0.0,1.0,86,0.00,,CLR,0.11,VWS V14.00,2013-06-09 02:28:00,
2013-06-08 22:30:00,65.8,61.5,30.04,ESE,111,0.0,1.0,86,0.00,,OVC009,0.11,VWS V14.00,2013-06-09 02:30:00,
2013-06-08 22:34:00,65.8,61.2,30.05,ESE,111,0.0,1.0,85,0.00,,CLR,0.11,VWS V14.00,2013-06-09 02:34:00,
2013-06-08 22:39:00,65.9,61.3,30.05,North,6,0.0,1.0,85,0.00,,CLR,0.11,VWS V14.00,2013-06-09 02:39:00,
2013-06-08 22:44:00,65.8,61.2,30.05,North,6,0.0,1.0,85,0.00,,CLR,0.11,VWS V14.00,2013-06-09 02:44:00,
2013-06-08 22:49:00,66.1,61.1,30.04,North,6,0.0,1.0,84,0.00,,CLR,0.11,VWS V14.00,2013-06-09 02:49:00,
2013-06-08 22:54:00,66.0,61.0,30.04,North,6,0.0,1.0,84,0.00,,CLR,0.11,VWS V14.00,2013-06-09 02:54:00,
2013-06-08 22:59:00,65.7,60.7,30.04,North,6,0.0,1.0,84,0.00,,CLR,0.11,VWS V14.00,2013-06-09 02:59:00,
2013-06-08 23:00:00,65.7,60.7,30.04,North,6,0.0,1.0,84,0.00,,OVC009,0.11,VWS V14.00,2013-06-09 03:00:00,
2013-06-08 23:04:00,65.4,60.8,30.04,North,6,0.0,0.0,85,0.00,,CLR,0.11,VWS V14.00,2013-06-09 03:04:00,
2013-06-08 23:09:00,65.1,60.2,30.04,North,6,0.0,0.0,84,0.00,,CLR,0.11,VWS V14.00,2013-06-09 03:09:00,
2013-06-08 23:14:00,65.1,60.2,30.05,NNE,25,0.0,1.0,84,0.00,,CLR,0.11,VWS V14.00,2013-06-09 03:14:00,
2013-06-08 23:19:00,65.0,60.0,30.05,NNE,26,0.0,1.0,84,0.00,,CLR,0.11,VWS V14.00,2013-06-09 03:19:00,
2013-06-08 23:25:00,65.0,60.0,30.05,NNE,25,0.0,1.0,84,0.00,,CLR,0.11,VWS V14.00,2013-06-09 03:25:00,
2013-06-08 23:30:00,64.8,59.9,30.05,NNE,25,0.0,0.0,84,0.00,,CLR,0.11,VWS V14.00,2013-06-09 03:30:00,
2013-06-08 23:35:00,64.7,59.8,30.05,NNE,25,0.0,0.0,84,0.00,,CLR,0.11,VWS V14.00,2013-06-09 03:35:00,
2013-06-08 23:40:00,64.6,59.7,30.06,NNE,26,0.0,0.0,84,0.00,,CLR,0.11,VWS V14.00,2013-06-09 03:40:00,
2013-06-08 23:45:00,64.7,59.8,30.06,NNE,26,0.0,0.0,84,0.00,,CLR,0.11,VWS V14.00,2013-06-09 03:45:00,
2013-06-08 23:50:00,64.9,60.0,30.06,North,349,0.0,0.0,84,0.00,,CLR,0.11,VWS V14.00,2013-06-09 03:50:00,
2013-06-08 23:55:00,65.4,60.1,30.06,WNW,300,0.0,2.0,83,0.00,,CLR,0.11,VWS V14.00,2013-06-09 03:55:00,